PWSweather.com
Personal Weather Stations
Station Observations
IONTARIO88
Lincoln, ON L0R

Lincoln, ON L0R

Lat: 43.1763563, Lon: -79.4719525

Elevation: 297

Station Type: Davis Vantage Pro 2 Plus

http://www.beamsvillewx.ca

Latest ConditionsUpdated 2:00:02 PM EST Tuesday, Nov 12, 2019
Currently Today's Max Today's Min Today's Average
Temperature 27.9°F-2.3°C 27.9°F-2.3°C 22.8°F-5.1°C 24.7°F-4.1°C
Dew Point 21.9°F-5.6°C 23.8°F-4.6°C 19.5°F-6.9°C 21.7°F-5.7°C
Winds 5.0 mph NW8.0 kmh NW 9.0 mph -14.5 kmh - - 6.8 mph 10.9 kmh
Wind Gusts 8.0 mph12.9 kmh 18.0 mph29.0 kmh - -
Humidity 78% 93% 77% 88%
Pressure 30.16 in1021.3 mb 30.17 in1021.7 mb 30.00 in1015.9 mb -
Precipitation - 0.12 in3.0 mm - -
Hour Temp Dew Point Humidity Winds Wind Gusts Pressure Precip Precip Rate Daily Precip Total
02:00 PM 27.9°F-2.3°C 21.9°F-5.6°C 78% 5.0 mph NW8.0 kmh NW 8.0 mph12.9 kmh 30.16 in1021.3 mb 0.00 in0.0 mm 0.00 in0.0 mm 0.12 in3.0 mm
01:45 PM 27.3°F-2.6°C 21.1°F-6.1°C 77% 6.0 mph NW9.7 kmh NW 12.0 mph19.3 kmh 30.16 in1021.3 mb 0.00 in0.0 mm 0.00 in0.0 mm 0.12 in3.0 mm
01:30 PM 27.9°F-2.3°C 22.5°F-5.3°C 80% 6.0 mph NW9.7 kmh NW 11.0 mph17.7 kmh 30.15 in1021.0 mb 0.00 in0.0 mm 0.00 in0.0 mm 0.12 in3.0 mm
01:15 PM 27.0°F-2.8°C 21.9°F-5.6°C 81% 6.0 mph NNW9.7 kmh NNW 11.0 mph17.7 kmh 30.16 in1021.3 mb 0.00 in0.0 mm 0.00 in0.0 mm 0.12 in3.0 mm
01:00 PM 27.0°F-2.8°C 21.9°F-5.6°C 81% 5.0 mph NW8.0 kmh NW 11.0 mph17.7 kmh 30.16 in1021.3 mb 0.00 in0.0 mm 0.00 in0.0 mm 0.12 in3.0 mm
12:45 PM 26.4°F-3.1°C 21.7°F-5.7°C 82% 5.0 mph NW8.0 kmh NW 10.0 mph16.1 kmh 30.16 in1021.3 mb 0.00 in0.0 mm 0.00 in0.0 mm 0.12 in3.0 mm
12:30 PM 26.2°F-3.2°C 21.5°F-5.8°C 82% 7.0 mph NW11.3 kmh NW 12.0 mph19.3 kmh 30.17 in1021.7 mb 0.00 in0.0 mm 0.00 in0.0 mm 0.12 in3.0 mm
12:15 PM 25.7°F-3.5°C 21.0°F-6.1°C 82% 6.0 mph NW9.7 kmh NW 10.0 mph16.1 kmh 30.16 in1021.3 mb 0.00 in0.0 mm 0.00 in0.0 mm 0.12 in3.0 mm
12:00 PM 25.5°F-3.6°C 20.8°F-6.2°C 82% 7.0 mph NW11.3 kmh NW 14.0 mph22.5 kmh 30.16 in1021.3 mb 0.00 in0.0 mm 0.00 in0.0 mm 0.12 in3.0 mm
11:45 AM 25.2°F-3.8°C 20.7°F-6.3°C 83% 7.0 mph NNW11.3 kmh NNW 16.0 mph25.7 kmh 30.16 in1021.3 mb 0.00 in0.0 mm 0.00 in0.0 mm 0.12 in3.0 mm
11:30 AM 25.2°F-3.8°C 20.7°F-6.3°C 83% 6.0 mph NNW9.7 kmh NNW 13.0 mph20.9 kmh 30.16 in1021.3 mb 0.00 in0.0 mm 0.00 in0.0 mm 0.12 in3.0 mm
11:15 AM 24.8°F-4.0°C 20.4°F-6.4°C 83% 9.0 mph NW14.5 kmh NW 17.0 mph27.4 kmh 30.16 in1021.3 mb 0.00 in0.0 mm 0.00 in0.0 mm 0.12 in3.0 mm
11:00 AM 25.3°F-3.7°C 21.2°F-6.0°C 84% 5.0 mph NW8.0 kmh NW 12.0 mph19.3 kmh 30.16 in1021.3 mb 0.01 in0.3 mm 0.00 in0.0 mm 0.12 in3.0 mm
10:45 AM 24.6°F-4.1°C 20.8°F-6.2°C 85% 7.0 mph NNW11.3 kmh NNW 14.0 mph22.5 kmh 30.16 in1021.3 mb 0.01 in0.3 mm 0.00 in0.0 mm 0.12 in3.0 mm
10:30 AM 24.6°F-4.1°C 20.8°F-6.2°C 85% 7.0 mph NNW11.3 kmh NNW 14.0 mph22.5 kmh 30.16 in1021.3 mb 0.01 in0.3 mm 0.00 in0.0 mm 0.12 in3.0 mm
10:15 AM 24.4°F-4.2°C 20.9°F-6.2°C 86% 8.0 mph NNW12.9 kmh NNW 14.0 mph22.5 kmh 30.15 in1021.0 mb 0.01 in0.3 mm 0.04 in1.0 mm 0.12 in3.0 mm
10:00 AM 24.3°F-4.3°C 20.4°F-6.4°C 85% 8.0 mph NNW12.9 kmh NNW 15.0 mph24.1 kmh 30.15 in1021.0 mb 0.00 in0.0 mm 0.00 in0.0 mm 0.11 in2.8 mm
09:45 AM 24.1°F-4.4°C 20.8°F-6.2°C 87% 6.0 mph NNW9.7 kmh NNW 14.0 mph22.5 kmh 30.14 in1020.7 mb 0.00 in0.0 mm 0.00 in0.0 mm 0.11 in2.8 mm
09:30 AM 23.7°F-4.6°C 20.7°F-6.3°C 88% 7.0 mph NNW11.3 kmh NNW 14.0 mph22.5 kmh 30.14 in1020.7 mb 0.00 in0.0 mm 0.00 in0.0 mm 0.11 in2.8 mm
09:15 AM 23.9°F-4.5°C 20.9°F-6.2°C 88% 7.0 mph NNW11.3 kmh NNW 13.0 mph20.9 kmh 30.14 in1020.7 mb 0.00 in0.0 mm 0.00 in0.0 mm 0.11 in2.8 mm
09:00 AM 23.4°F-4.8°C 20.3°F-6.5°C 88% 8.0 mph NNW12.9 kmh NNW 17.0 mph27.4 kmh 30.13 in1020.3 mb 0.00 in0.0 mm 0.00 in0.0 mm 0.11 in2.8 mm
08:45 AM 23.0°F-5.0°C 20.0°F-6.7°C 88% 7.0 mph NNW11.3 kmh NNW 16.0 mph25.7 kmh 30.13 in1020.3 mb 0.00 in0.0 mm 0.00 in0.0 mm 0.11 in2.8 mm
08:30 AM 22.8°F-5.1°C 19.5°F-6.9°C 87% 8.0 mph NNW12.9 kmh NNW 18.0 mph29.0 kmh 30.12 in1020.0 mb 0.00 in0.0 mm 0.00 in0.0 mm 0.11 in2.8 mm
08:15 AM 22.8°F-5.1°C 19.8°F-6.8°C 88% 8.0 mph NNW12.9 kmh NNW 17.0 mph27.4 kmh 30.12 in1020.0 mb 0.00 in0.0 mm 0.00 in0.0 mm 0.11 in2.8 mm
08:00 AM 22.8°F-5.1°C 19.8°F-6.8°C 88% 8.0 mph NNW12.9 kmh NNW 16.0 mph25.7 kmh 30.11 in1019.6 mb 0.00 in0.0 mm 0.00 in0.0 mm 0.11 in2.8 mm
07:45 AM 22.8°F-5.1°C 19.8°F-6.8°C 88% 7.0 mph NW11.3 kmh NW 14.0 mph22.5 kmh 30.10 in1019.3 mb 0.00 in0.0 mm 0.00 in0.0 mm 0.11 in2.8 mm
07:30 AM 22.8°F-5.1°C 20.1°F-6.6°C 89% 6.0 mph NNW9.7 kmh NNW 12.0 mph19.3 kmh 30.09 in1019.0 mb 0.00 in0.0 mm 0.00 in0.0 mm 0.11 in2.8 mm
07:15 AM 22.8°F-5.1°C 20.1°F-6.6°C 89% 7.0 mph NW11.3 kmh NW 15.0 mph24.1 kmh 30.09 in1019.0 mb 0.00 in0.0 mm 0.00 in0.0 mm 0.11 in2.8 mm
07:00 AM 23.2°F-4.9°C 20.4°F-6.4°C 89% 7.0 mph NW11.3 kmh NW 14.0 mph22.5 kmh 30.08 in1018.6 mb 0.00 in0.0 mm 0.00 in0.0 mm 0.11 in2.8 mm
06:45 AM 23.4°F-4.8°C 20.9°F-6.2°C 90% 7.0 mph NW11.3 kmh NW 15.0 mph24.1 kmh 30.07 in1018.3 mb 0.00 in0.0 mm 0.00 in0.0 mm 0.11 in2.8 mm
06:30 AM 23.5°F-4.7°C 21.0°F-6.1°C 90% 7.0 mph NW11.3 kmh NW 14.0 mph22.5 kmh 30.07 in1018.3 mb 0.00 in0.0 mm 0.00 in0.0 mm 0.11 in2.8 mm
06:15 AM 23.5°F-4.7°C 21.0°F-6.1°C 90% 7.0 mph NW11.3 kmh NW 15.0 mph24.1 kmh 30.06 in1017.9 mb 0.00 in0.0 mm 0.00 in0.0 mm 0.11 in2.8 mm
06:00 AM 23.5°F-4.7°C 21.3°F-5.9°C 91% 7.0 mph NW11.3 kmh NW 13.0 mph20.9 kmh 30.06 in1017.9 mb 0.00 in0.0 mm 0.00 in0.0 mm 0.11 in2.8 mm
05:45 AM 23.7°F-4.6°C 21.5°F-5.8°C 91% 6.0 mph NNW9.7 kmh NNW 13.0 mph20.9 kmh 30.06 in1017.9 mb 0.00 in0.0 mm 0.00 in0.0 mm 0.11 in2.8 mm
05:30 AM 23.7°F-4.6°C 21.5°F-5.8°C 91% 7.0 mph NNW11.3 kmh NNW 14.0 mph22.5 kmh 30.05 in1017.6 mb 0.00 in0.0 mm 0.00 in0.0 mm 0.11 in2.8 mm
05:15 AM 24.1°F-4.4°C 22.1°F-5.5°C 92% 8.0 mph NNW12.9 kmh NNW 16.0 mph25.7 kmh 30.05 in1017.6 mb 0.00 in0.0 mm 0.00 in0.0 mm 0.11 in2.8 mm
05:00 AM 24.3°F-4.3°C 22.3°F-5.4°C 92% 7.0 mph NNW11.3 kmh NNW 13.0 mph20.9 kmh 30.04 in1017.3 mb 0.00 in0.0 mm 0.00 in0.0 mm 0.11 in2.8 mm
04:45 AM 24.4°F-4.2°C 22.5°F-5.3°C 92% 6.0 mph NNW9.7 kmh NNW 11.0 mph17.7 kmh 30.04 in1017.3 mb 0.00 in0.0 mm 0.00 in0.0 mm 0.11 in2.8 mm
04:30 AM 24.3°F-4.3°C 22.3°F-5.4°C 92% 8.0 mph NNW12.9 kmh NNW 15.0 mph24.1 kmh 30.03 in1016.9 mb 0.00 in0.0 mm 0.00 in0.0 mm 0.11 in2.8 mm
04:15 AM 24.4°F-4.2°C 22.5°F-5.3°C 92% 6.0 mph NNW9.7 kmh NNW 14.0 mph22.5 kmh 30.03 in1016.9 mb 0.00 in0.0 mm 0.00 in0.0 mm 0.11 in2.8 mm
04:00 AM 24.3°F-4.3°C 22.3°F-5.4°C 92% 7.0 mph NNW11.3 kmh NNW 16.0 mph25.7 kmh 30.03 in1016.9 mb 0.00 in0.0 mm 0.00 in0.0 mm 0.11 in2.8 mm
03:45 AM 24.4°F-4.2°C 22.5°F-5.3°C 92% 7.0 mph N11.3 kmh N 14.0 mph22.5 kmh 30.03 in1016.9 mb 0.00 in0.0 mm 0.00 in0.0 mm 0.11 in2.8 mm
03:30 AM 24.6°F-4.1°C 22.9°F-5.1°C 93% 9.0 mph N14.5 kmh N 15.0 mph24.1 kmh 30.02 in1016.6 mb 0.01 in0.3 mm 0.00 in0.0 mm 0.11 in2.8 mm
03:15 AM 24.6°F-4.1°C 22.9°F-5.1°C 93% 6.0 mph N9.7 kmh N 13.0 mph20.9 kmh 30.02 in1016.6 mb 0.01 in0.3 mm 0.00 in0.0 mm 0.11 in2.8 mm
03:00 AM 25.0°F-3.9°C 23.2°F-4.9°C 93% 5.0 mph N8.0 kmh N 13.0 mph20.9 kmh 30.03 in1016.9 mb 0.02 in0.5 mm 0.00 in0.0 mm 0.11 in2.8 mm
02:45 AM 24.8°F-4.0°C 23.1°F-4.9°C 93% 5.0 mph N8.0 kmh N 11.0 mph17.7 kmh 30.01 in1016.3 mb 0.02 in0.5 mm 0.00 in0.0 mm 0.11 in2.8 mm
02:30 AM 25.0°F-3.9°C 23.2°F-4.9°C 93% 6.0 mph N9.7 kmh N 12.0 mph19.3 kmh 30.01 in1016.3 mb 0.03 in0.8 mm 0.00 in0.0 mm 0.10 in2.5 mm
02:15 AM 25.0°F-3.9°C 23.2°F-4.9°C 93% 5.0 mph N8.0 kmh N 10.0 mph16.1 kmh 30.01 in1016.3 mb 0.04 in1.0 mm 0.00 in0.0 mm 0.10 in2.5 mm
02:00 AM 25.0°F-3.9°C 23.2°F-4.9°C 93% 6.0 mph N9.7 kmh N 13.0 mph20.9 kmh 30.01 in1016.3 mb 0.05 in1.3 mm 0.00 in0.0 mm 0.09 in2.3 mm
01:45 AM 25.2°F-3.8°C 23.4°F-4.8°C 93% 6.0 mph N9.7 kmh N 11.0 mph17.7 kmh 30.00 in1015.9 mb 0.06 in1.5 mm 0.04 in1.0 mm 0.09 in2.3 mm
01:30 AM 25.2°F-3.8°C 23.4°F-4.8°C 93% 7.0 mph N11.3 kmh N 13.0 mph20.9 kmh 30.01 in1016.3 mb 0.05 in1.3 mm 0.00 in0.0 mm 0.07 in1.8 mm
01:15 AM 25.3°F-3.7°C 23.6°F-4.7°C 93% 6.0 mph N9.7 kmh N 15.0 mph24.1 kmh 30.01 in1016.3 mb 0.06 in1.5 mm 0.04 in1.0 mm 0.06 in1.5 mm
01:00 AM 25.3°F-3.7°C 23.6°F-4.7°C 93% 7.0 mph N11.3 kmh N 14.0 mph22.5 kmh 30.01 in1016.3 mb 0.05 in1.3 mm 0.01 in0.3 mm 0.05 in1.3 mm
12:45 AM 25.3°F-3.7°C 23.6°F-4.7°C 93% 8.0 mph N12.9 kmh N 15.0 mph24.1 kmh 30.00 in1015.9 mb 0.04 in1.0 mm 0.00 in0.0 mm 0.03 in0.8 mm
12:30 AM 25.5°F-3.6°C 23.8°F-4.6°C 93% 7.0 mph N11.3 kmh N 14.0 mph22.5 kmh 30.01 in1016.3 mb 0.04 in1.0 mm 0.04 in1.0 mm 0.02 in0.5 mm
12:15 AM 25.3°F-3.7°C 23.6°F-4.7°C 93% 8.0 mph N12.9 kmh N 18.0 mph29.0 kmh 30.01 in1016.3 mb 0.03 in0.8 mm 0.00 in0.0 mm 0.01 in0.3 mm
12:00 AM 25.5°F-3.6°C 23.8°F-4.6°C 93% 9.0 mph N14.5 kmh N 17.0 mph27.4 kmh 30.00 in1015.9 mb 0.04 in1.0 mm 0.00 in0.0 mm 0.04 in1.0 mm